Observations for LAMEZIA TERME, Italy (LICA)

LICA 191950Z 04003KT CAVOK 15/14 Q1019  
LICA 191850Z 07004KT CAVOK 16/15 Q1018  
LICA 191750Z 07004KT CAVOK 18/16 Q1018  
LICA 191650Z 18002KT CAVOK 19/17 Q1018  
LICA 191550Z 22003KT CAVOK 22/16 Q1018  
LICA 191450Z 21005KT CAVOK 23/13 Q1018  
LICA 191350Z 27007KT 9999 FEW020 24/12 Q1018
LICA 191250Z 26009KT 9999 FEW020 24/14 Q1018
LICA 191150Z 27007KT CAVOK 24/12 Q1018  
LICA 191050Z VRB03KT CAVOK 25/11 Q1018  
LICA 190950Z VRB02KT CAVOK 25/13 Q1019  
LICA 190850Z 09006KT CAVOK 22/14 Q1019  
LICA 190750Z 07006KT CAVOK 19/14 Q1019  
LICA 190650Z 07006KT CAVOK 16/13 Q1019  
LICA 190550Z 07006KT CAVOK 13/12 Q1018  
LICA 190450Z 08007KT CAVOK 11/11 Q1018  
LICA 190350Z 07006KT 9999 FEW020 11/11 Q1018
LICA 190150Z 09007KT 9999 FEW020 12/11 Q1018
LICA 190050Z 07005KT 9999 FEW020 12/12 Q1018
LICA 182350Z 07006KT 9999 FEW020 13/12 Q1018
LICA 182150Z 08004KT 9999 FEW020 13/12 Q1018
LICA 182050Z 07005KT 9999 FEW020 14/13 Q1018
LICA 181950Z 06005KT 9999 FEW020 15/14 Q1019